Berlare, Belgium
Current Conditions -  °F | °C
As of 8:20 AM on Sunday 23 Nov 2014 (Local Time) from EBAW Reporting Station
Light Fog Light Fog  
Wind Chill: 45°   Ceiling: Unl
Heat Index: 45°   Visibility: 0.93mi
Dew Point: 43°   Wind: 3mph
Humidity: 93%   Direction: 100°E
Pressure: 30.03"   Gusts: NA
Location:  51.03°N, 4°E
Report Text: EBAW 230720Z 10003KT 1500 R11/0600V0800D R29/0800VP2000U MIFG BR NSC 07/06 Q1017 BECMG 4000 BR
Loading
Personal Weather Stations






























Interactive Weather Map New forecast layout! Learn more

10-Day Weather Forecast

Advertisements
Track Severe Weather on mobile